Time;durP1;ratioP1;P1;durP2;ratioP2;P2;SDS_P1;SDS_P2;PMS_P1;PMS_P2;Temp;Humidity;BMP_temperature;BMP_pressure;BME280_temperature;BME280_humidity;BME280_pressure;Samples;Min_cycle;Max_cycle;Signal;HPM_P1;HPM_P2
2022/08/31 00:05:16;;;;;;;9.85;5.10;;;;;;;15.92;88.69;95732.37;1732126;83;20984;-71
2022/08/31 00:07:43;;;;;;;11.33;5.05;;;;;;;16.02;89.13;95732.91;1732039;82;21003;-71
2022/08/31 00:10:17;;;;;;;11.60;4.62;;;;;;;15.97;88.20;95733.08;1732116;83;21477;-71
2022/08/31 00:12:47;;;;;;;9.18;4.40;;;;;;;15.93;87.77;95734.61;1731943;83;20999;-71
2022/08/31 00:15:21;;;;;;;9.43;5.70;;;;;;;15.82;87.80;95734.98;1732144;83;21007;-71
2022/08/31 00:17:48;;;;;;;4.62;3.30;;;;;;;15.71;87.97;95738.05;1732298;82;20967;-71
2022/08/31 00:20:18;;;;;;;8.60;4.33;;;;;;;15.64;87.87;95739.62;1732130;83;21572;-71
2022/08/31 00:22:44;;;;;;;6.22;5.10;;;;;;;15.61;88.27;95739.73;1732071;83;21544;-71
2022/08/31 00:25:12;;;;;;;7.47;4.33;;;;;;;15.61;88.01;95736.61;1731765;83;21497;-71
2022/08/31 00:27:38;;;;;;;11.78;4.42;;;;;;;15.59;88.17;95740.64;1731626;83;21027;-71
2022/08/31 00:30:08;;;;;;;9.90;4.55;;;;;;;15.62;88.31;95742.79;1731736;83;21066;-71
2022/08/31 00:32:35;;;;;;;9.58;4.53;;;;;;;15.54;88.06;95741.73;1732047;83;21477;-71
2022/08/31 00:35:04;;;;;;;7.72;4.00;;;;;;;15.56;88.85;95733.25;1731622;83;21122;-71
2022/08/31 00:37:31;;;;;;;11.22;4.53;;;;;;;15.57;88.08;95733.64;1732048;83;21539;-70
2022/08/31 00:39:58;;;;;;;16.82;5.15;;;;;;;15.49;88.23;95729.06;1721009;83;20996;-71
2022/08/31 00:42:25;;;;;;;5.58;4.40;;;;;;;15.50;88.97;95732.15;1701045;84;21011;-71
2022/08/31 00:44:51;;;;;;;9.78;4.78;;;;;;;15.54;89.20;95728.44;1701141;84;21035;-71
2022/08/31 00:47:18;;;;;;;8.70;4.25;;;;;;;15.52;88.62;95728.52;1700995;84;21027;-71
2022/08/31 00:49:50;;;;;;;8.25;4.50;;;;;;;15.48;88.58;95732.20;1701045;84;21051;-71
2022/08/31 00:52:27;;;;;;;7.58;4.60;;;;;;;15.58;89.12;95730.08;1701567;84;21012;-71
2022/08/31 00:54:59;;;;;;;7.80;4.50;;;;;;;15.60;88.66;95730.89;1701002;84;21078;-71
2022/08/31 00:57:31;;;;;;;8.63;4.75;;;;;;;15.54;87.98;95721.79;1701035;84;21107;-71
2022/08/31 01:00:03;;;;;;;10.45;5.17;;;;;;;15.54;88.06;95725.78;1701528;84;20998;-71
2022/08/31 01:02:30;;;;;;;6.95;3.98;;;;;;;15.58;88.17;95724.29;1701124;84;21019;-71
2022/08/31 01:04:56;;;;;;;7.70;4.50;;;;;;;15.59;87.90;95723.82;1701339;84;21055;-71
2022/08/31 01:07:24;;;;;;;8.98;4.17;;;;;;;15.53;87.55;95719.59;1701333;84;21042;-71
2022/08/31 01:09:51;;;;;;;11.22;4.97;;;;;;;15.54;88.33;95722.66;1701244;84;20988;-71
2022/08/31 01:12:18;;;;;;;11.08;4.22;;;;;;;15.55;88.69;95714.23;1700985;84;21063;-71
2022/08/31 01:14:45;;;;;;;8.98;4.60;;;;;;;15.64;89.15;95715.68;1701345;84;21052;-71
2022/08/31 01:17:12;;;;;;;10.90;4.55;;;;;;;15.68;89.06;95710.66;1700883;84;21028;-71
2022/08/31 01:20:18;;;;;;;10.58;4.37;;;;;;;15.65;89.11;95706.77;1701301;84;21490;-71
2022/08/31 01:22:59;;;;;;;8.00;4.53;;;;;;;15.70;89.16;95708.83;1700819;84;21545;-71
2022/08/31 01:25:26;;;;;;;10.20;4.62;;;;;;;15.69;89.00;95711.95;1701147;84;21027;-70
2022/08/31 01:27:54;;;;;;;10.10;4.08;;;;;;;15.72;89.35;95705.66;1701305;84;21012;-71
2022/08/31 01:30:24;;;;;;;8.43;4.10;;;;;;;15.71;89.05;95709.25;1701117;84;20999;-71
2022/08/31 01:32:51;;;;;;;8.15;3.95;;;;;;;15.66;88.51;95709.84;1701344;84;21019;-71
2022/08/31 01:35:18;;;;;;;5.58;4.08;;;;;;;15.58;88.75;95704.34;1701199;84;21023;-71
2022/08/31 01:37:46;;;;;;;7.62;4.08;;;;;;;15.63;89.46;95704.18;1701348;84;21014;-71
2022/08/31 01:40:15;;;;;;;7.35;4.12;;;;;;;15.69;88.81;95708.40;1711278;83;21525;-71
2022/08/31 01:42:43;;;;;;;6.55;4.40;;;;;;;15.64;88.14;95707.23;1732092;83;21078;-71
2022/08/31 01:45:11;;;;;;;6.05;4.60;;;;;;;15.62;88.30;95713.53;1731963;83;20999;-71
2022/08/31 01:47:40;;;;;;;8.70;4.00;;;;;;;15.67;89.04;95703.59;1732160;83;21062;-71
2022/08/31 01:50:08;;;;;;;10.08;4.03;;;;;;;15.66;87.76;95711.17;1732113;83;21553;-71
2022/08/31 01:52:37;;;;;;;7.70;3.92;;;;;;;15.52;87.73;95706.34;1731682;83;21043;-71
2022/08/31 01:55:07;;;;;;;17.87;5.15;;;;;;;15.44;88.16;95703.10;1732057;83;21054;-71
2022/08/31 01:57:34;;;;;;;13.53;4.80;;;;;;;15.38;88.63;95707.32;1732108;83;21030;-71
2022/08/31 02:00:19;;;;;;;11.10;5.12;;;;;;;15.29;88.40;95710.69;1732085;83;21059;-71
2022/08/31 02:02:47;;;;;;;8.53;4.15;;;;;;;15.27;89.04;95707.67;1731978;83;21043;-70
2022/08/31 02:05:14;;;;;;;7.17;4.83;;;;;;;15.24;88.84;95707.80;1732026;83;21019;-71
2022/08/31 02:07:43;;;;;;;8.33;4.28;;;;;;;15.21;89.20;95706.11;1732140;83;21059;-71
2022/08/31 02:10:10;;;;;;;12.28;4.25;;;;;;;15.17;89.06;95703.17;1732275;82;21047;-71
2022/08/31 02:12:37;;;;;;;9.40;4.15;;;;;;;15.12;88.99;95703.80;1731887;83;21544;-71
2022/08/31 02:15:08;;;;;;;8.33;5.08;;;;;;;15.08;89.17;95711.45;1732607;83;21058;-71
2022/08/31 02:17:35;;;;;;;15.50;5.20;;;;;;;15.04;89.24;95710.67;1732220;83;21066;-71
2022/08/31 02:20:07;;;;;;;9.05;4.40;;;;;;;15.10;90.13;95708.29;1731928;83;21556;-71
2022/08/31 02:22:34;;;;;;;7.97;4.55;;;;;;;15.16;89.80;95705.41;1732573;83;21481;-71
2022/08/31 02:25:02;;;;;;;10.25;4.67;;;;;;;15.12;89.16;95704.66;1732086;83;21516;-71
2022/08/31 02:27:29;;;;;;;12.00;4.35;;;;;;;15.10;89.07;95702.50;1732065;83;21046;-71
2022/08/31 02:29:56;;;;;;;9.75;4.78;;;;;;;15.10;88.96;95701.64;1732206;83;21488;-71
2022/08/31 02:32:23;;;;;;;9.23;3.92;;;;;;;15.08;88.74;95701.69;1732377;83;21023;-71
2022/08/31 02:34:51;;;;;;;6.30;3.65;;;;;;;15.03;89.01;95704.96;1731962;83;21042;-71
2022/08/31 02:37:18;;;;;;;7.50;4.12;;;;;;;14.98;88.58;95698.94;1732223;83;20968;-71
2022/08/31 02:39:45;;;;;;;11.25;4.78;;;;;;;15.01;88.96;95696.63;1731857;83;21023;-71
2022/08/31 02:42:12;;;;;;;6.72;4.42;;;;;;;15.02;88.76;95695.27;1731460;83;21066;-71
2022/08/31 02:44:39;;;;;;;8.53;4.60;;;;;;;15.06;89.45;95695.55;1732146;82;21500;-71
2022/08/31 02:47:06;;;;;;;6.12;3.80;;;;;;;15.07;88.90;95686.67;1731864;83;21027;-71
2022/08/31 02:49:35;;;;;;;8.93;3.90;;;;;;;15.13;89.54;95688.24;1730619;83;21879;-71
2022/08/31 02:52:03;;;;;;;5.67;3.70;;;;;;;15.20;89.22;95685.78;1732395;83;21026;-71
2022/08/31 02:54:30;;;;;;;5.17;3.62;;;;;;;15.26;89.24;95684.69;1731873;83;21540;-71
2022/08/31 02:56:57;;;;;;;7.20;3.60;;;;;;;15.33;88.70;95688.41;1732005;83;20999;-67
2022/08/31 02:59:23;;;;;;;6.65;3.98;;;;;;;15.34;88.23;95686.61;1731822;83;21090;-71
2022/08/31 03:01:51;;;;;;;9.65;4.25;;;;;;;15.35;88.30;95681.25;1731949;83;21003;-71
2022/08/31 03:04:18;;;;;;;10.48;4.37;;;;;;;15.33;87.86;95683.55;1732120;83;21010;-71
2022/08/31 03:06:46;;;;;;;6.67;3.98;;;;;;;15.25;88.13;95683.83;1731958;83;21058;-71
2022/08/31 03:09:14;;;;;;;11.20;4.40;;;;;;;15.17;87.75;95691.21;1732183;83;20992;-71
2022/08/31 03:11:42;;;;;;;7.80;4.47;;;;;;;15.16;88.24;95689.45;1732192;83;20999;-71
2022/08/31 03:14:09;;;;;;;8.43;4.45;;;;;;;15.14;88.41;95684.22;1731953;83;21022;-71
2022/08/31 03:16:39;;;;;;;10.28;4.62;;;;;;;15.15;88.70;95683.28;1732076;83;21006;-71
2022/08/31 03:19:08;;;;;;;9.65;4.37;;;;;;;15.15;89.31;95687.27;1732041;83;21042;-71
2022/08/31 03:21:36;;;;;;;14.28;4.50;;;;;;;15.16;88.65;95680.16;1732066;83;21394;-71
2022/08/31 03:24:03;;;;;;;9.80;4.00;;;;;;;15.10;88.83;95687.03;1731850;83;21023;-71
2022/08/31 03:26:29;;;;;;;10.98;4.20;;;;;;;15.08;88.55;95685.74;1732329;83;21026;-71
2022/08/31 03:28:56;;;;;;;12.23;4.22;;;;;;;15.06;88.80;95684.92;1731929;83;21038;-71
2022/08/31 03:31:42;;;;;;;9.15;4.55;;;;;;;15.09;89.54;95690.16;1732261;83;21019;-71
2022/08/31 03:34:09;;;;;;;7.50;4.20;;;;;;;15.08;89.58;95687.06;1732236;83;21504;-71
2022/08/31 03:36:35;;;;;;;8.05;4.60;;;;;;;15.09;89.71;95686.60;1705179;83;21006;-71
2022/08/31 03:39:03;;;;;;;7.70;4.20;;;;;;;15.16;89.53;95685.47;1732298;83;21015;-71
2022/08/31 03:41:30;;;;;;;6.10;4.15;;;;;;;15.14;88.87;95684.66;1712820;83;21023;-71
2022/08/31 03:44:00;;;;;;;7.45;4.45;;;;;;;15.13;88.78;95678.47;1700918;84;21528;-71
2022/08/31 03:46:25;;;;;;;10.78;4.80;;;;;;;15.14;89.21;95681.99;1701196;84;21024;-71
2022/08/31 03:48:53;;;;;;;12.10;5.72;;;;;;;15.19;89.12;95684.03;1701009;84;21043;-71
2022/08/31 03:51:20;;;;;;;8.85;4.33;;;;;;;15.23;88.74;95683.48;1700952;84;21517;-71
2022/08/31 03:53:47;;;;;;;5.95;4.30;;;;;;;15.24;88.81;95682.54;1700994;84;21091;-71
2022/08/31 03:56:16;;;;;;;7.15;4.22;;;;;;;15.28;89.07;95689.03;1701351;84;21521;-71
2022/08/31 03:58:43;;;;;;;6.00;4.85;;;;;;;15.34;89.51;95687.47;1700914;84;21014;-71
2022/08/31 04:01:12;;;;;;;8.78;4.33;;;;;;;15.44;89.70;95683.16;1701054;84;21067;-71
2022/08/31 04:03:55;;;;;;;7.95;4.55;;;;;;;15.53;89.58;95680.17;1666344;86;21169;-70
2022/08/31 04:06:43;;;;;;;8.45;5.35;;;;;;;15.52;88.68;95682.41;1675112;85;21520;-71
2022/08/31 04:09:28;;;;;;;30.37;19.32;;;;;;;15.48;88.45;95683.47;1708588;84;20999;-71
2022/08/31 04:12:13;;;;;;;12.90;8.88;;;;;;;15.48;88.71;95678.15;1659004;86;21004;-71
2022/08/31 04:14:44;;;;;;;10.30;5.10;;;;;;;15.57;89.65;95683.11;1688182;84;21036;-71
2022/08/31 04:17:29;;;;;;;8.13;4.40;;;;;;;15.71;89.71;95682.18;1701073;84;20991;-71
2022/08/31 04:19:58;;;;;;;7.08;4.40;;;;;;;15.79;89.39;95677.43;1698913;84;21067;-71
2022/08/31 04:22:35;;;;;;;11.85;4.40;;;;;;;15.91;89.39;95681.43;1700496;84;21011;-71
2022/08/31 04:25:22;;;;;;;10.03;4.83;;;;;;;15.95;88.87;95684.83;1700242;84;21023;-70
2022/08/31 04:27:49;;;;;;;6.20;4.53;;;;;;;15.99;88.08;95685.98;1701130;84;20980;-71
2022/08/31 04:30:16;;;;;;;9.83;5.85;;;;;;;15.93;87.85;95686.23;1679441;84;20991;-71
2022/08/31 04:32:42;;;;;;;18.40;11.03;;;;;;;15.87;87.66;95677.61;1700882;84;21035;-71
2022/08/31 04:35:09;;;;;;;16.45;10.08;;;;;;;15.87;88.13;95680.27;1701008;84;21000;-71
2022/08/31 04:37:39;;;;;;;14.75;9.73;;;;;;;15.93;88.37;95681.39;1701051;84;21039;-71
2022/08/31 04:40:16;;;;;;;10.48;7.87;;;;;;;15.91;88.32;95680.10;1701070;84;21070;-71
2022/08/31 04:42:40;;;;;;;13.60;7.97;;;;;;;15.90;88.32;95674.83;1708599;84;21011;-71
2022/08/31 04:45:08;;;;;;;14.05;7.03;;;;;;;15.98;88.81;95681.61;1708809;83;21103;-70
2022/08/31 04:47:34;;;;;;;9.28;5.85;;;;;;;16.05;88.56;95684.91;1709065;84;21003;-71
2022/08/31 04:50:02;;;;;;;7.67;5.65;;;;;;;16.03;87.87;95684.09;1709196;84;21472;-71
2022/08/31 04:52:30;;;;;;;11.20;5.00;;;;;;;16.05;87.84;95688.01;1688698;84;21015;-71
2022/08/31 04:54:57;;;;;;;9.15;4.87;;;;;;;16.10;88.14;95685.59;1708877;84;21032;-71
2022/08/31 04:57:23;;;;;;;6.92;4.97;;;;;;;16.19;88.25;95695.00;1709386;84;21038;-71
2022/08/31 04:59:50;;;;;;;10.98;5.12;;;;;;;16.15;87.47;95695.60;1708922;84;21027;-70
2022/08/31 05:02:36;;;;;;;8.90;5.62;;;;;;;16.18;87.92;95702.60;1708809;84;21509;-71
2022/08/31 05:05:09;;;;;;;9.53;5.20;;;;;;;16.26;88.51;95699.17;1708537;84;21131;-71
2022/08/31 05:07:36;;;;;;;9.80;6.00;;;;;;;16.31;88.03;95697.19;1709048;84;21019;-71
2022/08/31 05:10:05;;;;;;;8.05;4.90;;;;;;;16.23;87.50;95695.30;1709042;84;21513;-71
2022/08/31 05:12:32;;;;;;;16.07;9.65;;;;;;;16.20;88.04;95698.06;1709252;84;21026;-71
2022/08/31 05:14:58;;;;;;;21.35;10.28;;;;;;;16.16;87.67;95693.80;1708895;84;21489;-71
2022/08/31 05:17:25;;;;;;;19.40;10.30;;;;;;;16.18;88.23;95688.82;1708872;84;21058;-71
2022/08/31 05:19:52;;;;;;;15.68;9.95;;;;;;;16.29;88.43;95694.19;1709233;83;21055;-71
2022/08/31 05:22:19;;;;;;;12.10;7.50;;;;;;;16.34;88.68;95694.41;1708964;83;21047;-71
2022/08/31 05:24:47;;;;;;;9.88;7.50;;;;;;;16.41;88.58;95686.58;1709152;84;21070;-71
2022/08/31 05:27:15;;;;;;;11.48;7.40;;;;;;;16.48;88.71;95690.31;1709095;84;21023;-71
2022/08/31 05:29:42;;;;;;;8.55;6.35;;;;;;;16.61;89.05;95687.11;1708794;84;21007;-71
2022/08/31 05:32:27;;;;;;;11.30;6.22;;;;;;;16.75;88.81;95685.66;1709016;83;21067;-71
2022/08/31 05:34:54;;;;;;;6.92;5.58;;;;;;;16.84;88.50;95683.52;1709139;84;21027;-71
2022/08/31 05:37:21;;;;;;;9.48;5.92;;;;;;;16.92;88.12;95681.00;1709110;83;21015;-71
2022/08/31 05:39:48;;;;;;;8.10;5.33;;;;;;;16.89;87.13;95680.67;1688955;84;20999;-71
2022/08/31 05:42:14;;;;;;;6.97;5.33;;;;;;;16.84;86.81;95688.84;1688461;84;21031;-71
2022/08/31 05:44:41;;;;;;;9.83;5.97;;;;;;;16.81;86.75;95682.80;1708914;83;20999;-71
2022/08/31 05:47:08;;;;;;;9.53;6.67;;;;;;;16.81;87.11;95689.45;1709133;83;21019;-71
2022/08/31 05:49:36;;;;;;;11.28;7.33;;;;;;;16.88;87.48;95684.25;1708529;84;21500;-71
2022/08/31 05:52:04;;;;;;;10.03;7.00;;;;;;;16.93;87.40;95686.72;1709218;84;21012;-71
2022/08/31 05:54:35;;;;;;;13.10;7.47;;;;;;;16.99;87.33;95691.81;1709126;84;21018;-71
2022/08/31 05:57:03;;;;;;;10.35;6.42;;;;;;;17.01;87.09;95693.92;1708927;83;21034;-71
2022/08/31 05:59:30;;;;;;;9.13;6.47;;;;;;;17.06;87.36;95691.96;1708968;84;21042;-71
2022/08/31 06:01:58;;;;;;;7.95;6.00;;;;;;;17.20;87.89;95690.02;1709083;84;21086;-71
2022/08/31 06:04:27;;;;;;;9.83;6.37;;;;;;;17.26;87.13;95687.08;1708830;84;21042;-71
2022/08/31 06:06:54;;;;;;;8.45;6.90;;;;;;;17.29;87.48;95690.49;1708896;84;21150;-71
2022/08/31 06:09:23;;;;;;;12.88;8.40;;;;;;;17.35;87.28;95688.49;1709137;83;21071;-71
2022/08/31 06:11:52;;;;;;;12.07;9.48;;;;;;;17.38;86.85;95689.21;1708710;83;21011;-71
2022/08/31 06:14:23;;;;;;;18.40;8.18;;;;;;;17.34;86.64;95699.63;1708386;83;21062;-71
2022/08/31 06:16:50;;;;;;;14.83;10.28;;;;;;;17.34;86.66;95691.63;1709008;83;21047;-71
2022/08/31 06:19:18;;;;;;;12.40;8.40;;;;;;;17.37;87.08;95694.63;1708941;83;21042;-71
2022/08/31 06:21:48;;;;;;;13.72;8.63;;;;;;;17.48;87.33;95701.69;1708996;83;21512;-71
2022/08/31 06:24:15;;;;;;;18.50;11.10;;;;;;;17.59;87.87;95702.09;1709297;84;21046;-72
2022/08/31 06:26:51;;;;;;;14.47;9.63;;;;;;;17.74;87.45;95705.88;1708960;84;21087;-71
2022/08/31 06:29:14;;;;;;;12.58;8.80;;;;;;;17.84;87.42;95703.66;1707900;84;21110;-71
2022/08/31 06:31:45;;;;;;;11.25;7.33;;;;;;;17.93;87.34;95703.26;1708673;83;21160;-71
2022/08/31 06:34:10;;;;;;;7.83;6.92;;;;;;;18.05;87.35;95702.70;1708710;84;21043;-71
2022/08/31 06:36:55;;;;;;;9.53;5.65;;;;;;;18.14;86.91;95704.95;1708894;84;21102;-71
2022/08/31 06:39:40;;;;;;;7.60;6.33;;;;;;;18.19;86.45;95710.53;1708936;83;21034;-71
2022/08/31 06:42:25;;;;;;;10.85;6.55;;;;;;;18.31;87.00;95710.81;1703667;83;21118;-71
2022/08/31 06:45:11;;;;;;;12.30;6.08;;;;;;;18.44;86.62;95713.77;1698487;84;21030;-71
2022/08/31 06:47:40;;;;;;;11.70;6.10;;;;;;;18.50;86.12;95708.63;1701089;84;21004;-71
2022/08/31 06:50:09;;;;;;;14.70;7.22;;;;;;;18.59;85.83;95710.36;1701122;84;21091;-71
2022/08/31 06:52:36;;;;;;;11.83;6.75;;;;;;;18.64;84.93;95710.14;1701094;84;21011;-71
2022/08/31 06:55:09;;;;;;;12.63;5.70;;;;;;;18.69;85.01;95713.45;1697690;84;21111;-71
2022/08/31 06:57:51;;;;;;;14.87;6.90;;;;;;;18.84;85.01;95718.56;1700971;84;20984;-71
2022/08/31 07:00:36;;;;;;;13.03;6.20;;;;;;;18.91;84.61;95709.78;1700865;84;21003;-71
2022/08/31 07:03:21;;;;;;;17.70;6.65;;;;;;;19.05;85.11;95714.42;1698568;84;21023;-71
2022/08/31 07:05:33;;;;;;;16.95;6.35;;;;;;;19.17;84.67;95714.67;1675427;84;21007;-71
2022/08/31 07:08:00;;;;;;;12.78;5.92;;;;;;;19.26;83.48;95711.16;1700883;84;21047;-72
2022/08/31 07:10:27;;;;;;;9.18;5.80;;;;;;;19.26;83.17;95706.67;1700954;84;21024;-71
2022/08/31 07:12:54;;;;;;;11.03;5.87;;;;;;;19.30;83.39;95706.88;1700940;84;21012;-71
2022/08/31 07:15:21;;;;;;;11.55;6.35;;;;;;;19.45;83.08;95706.57;1700697;84;21011;-71
2022/08/31 07:17:48;;;;;;;10.65;6.33;;;;;;;19.44;82.07;95706.19;1701011;84;21055;-72
2022/08/31 07:20:15;;;;;;;14.45;6.12;;;;;;;19.54;82.69;95706.59;1701268;84;20983;-72
2022/08/31 07:22:42;;;;;;;9.00;6.00;;;;;;;19.64;82.34;95709.17;1701272;84;21103;-72
2022/08/31 07:25:11;;;;;;;6.87;6.17;;;;;;;19.65;81.89;95704.20;1697528;84;21015;-71
2022/08/31 07:27:38;;;;;;;9.03;6.03;;;;;;;19.67;81.79;95702.34;1701148;84;21516;-71
2022/08/31 07:30:08;;;;;;;9.23;5.92;;;;;;;19.67;81.54;95705.02;1701158;84;20975;-71
2022/08/31 07:32:37;;;;;;;10.55;6.30;;;;;;;19.66;81.01;95699.25;1701172;84;21027;-71
2022/08/31 07:35:07;;;;;;;11.50;7.42;;;;;;;19.64;81.47;95703.34;1701188;84;20997;-71
2022/08/31 07:43:15;;;;;;;12.23;7.70;;;;;;;19.94;80.62;95700.50;1728156;83;21003;-72
2022/08/31 07:45:42;;;;;;;11.68;8.03;;;;;;;20.04;80.33;95696.37;1731635;83;21135;-72
2022/08/31 07:48:09;;;;;;;9.30;6.80;;;;;;;20.22;80.79;95701.20;1732057;83;20991;-72
2022/08/31 07:50:45;;;;;;;7.85;6.03;;;;;;;20.35;80.18;95686.16;1694385;82;21015;-72
2022/08/31 07:53:14;;;;;;;8.63;7.12;;;;;;;20.45;78.15;95691.39;1727884;83;21043;-72
2022/08/31 07:55:57;;;;;;;8.70;6.25;;;;;;;20.61;79.45;95687.39;1731673;83;21027;-72
2022/08/31 07:58:33;;;;;;;10.45;7.45;;;;;;;20.81;78.81;95690.28;1731059;83;21027;-72
2022/08/31 08:01:01;;;;;;;9.38;6.25;;;;;;;20.89;77.15;95679.11;1731477;83;21103;-71
2022/08/31 08:03:29;;;;;;;7.97;5.78;;;;;;;21.00;78.56;95679.85;1731993;83;21030;-72
2022/08/31 08:06:16;;;;;;;10.30;6.12;;;;;;;21.15;78.61;95677.61;1732042;83;21027;-71
2022/08/31 08:09:05;;;;;;;10.28;6.05;;;;;;;21.20;77.62;95680.88;1709397;83;21070;-72
2022/08/31 08:11:45;;;;;;;10.95;6.67;;;;;;;21.17;76.81;95684.61;1700670;82;21031;-71
2022/08/31 08:14:21;;;;;;;10.13;6.60;;;;;;;21.21;77.07;95681.25;1730290;83;21062;-71
2022/08/31 08:17:04;;;;;;;9.75;6.05;;;;;;;21.24;77.22;95677.52;1713417;83;21027;-71
2022/08/31 08:19:36;;;;;;;16.48;6.40;;;;;;;21.30;77.70;95681.20;1731014;83;21026;-71
2022/08/31 08:22:03;;;;;;;6.33;5.55;;;;;;;21.39;77.68;95676.19;1732099;83;20999;-70
2022/08/31 08:24:31;;;;;;;7.03;5.33;;;;;;;21.48;77.51;95680.13;1730697;83;21034;-70
2022/08/31 08:27:15;;;;;;;9.98;6.05;;;;;;;21.48;77.01;95677.92;1700974;83;21074;-71
2022/08/31 08:29:50;;;;;;;8.38;6.12;;;;;;;21.52;76.96;95676.30;1730047;83;21102;-70
2022/08/31 08:32:19;;;;;;;7.60;6.42;;;;;;;21.64;77.02;95678.70;1731393;83;21003;-69
2022/08/31 08:34:45;;;;;;;7.65;5.97;;;;;;;21.75;77.38;95672.22;1731974;83;21003;-71
2022/08/31 08:37:13;;;;;;;13.50;6.72;;;;;;;21.83;75.69;95677.11;1732046;83;21010;-71
2022/08/31 08:39:41;;;;;;;6.78;5.83;;;;;;;21.98;75.30;95678.84;1732043;83;21026;-70
2022/08/31 08:42:14;;;;;;;11.63;6.33;;;;;;;22.20;74.04;95667.64;1721605;83;21063;-71
2022/08/31 08:44:43;;;;;;;9.75;6.58;;;;;;;22.43;74.08;95670.20;1701017;84;21096;-70
2022/08/31 08:47:19;;;;;;;6.78;6.10;;;;;;;22.68;72.77;95668.13;1701141;84;21050;-72
2022/08/31 08:49:51;;;;;;;10.88;6.08;;;;;;;22.88;71.99;95667.28;1701085;84;21509;-66
2022/08/31 08:52:29;;;;;;;8.18;6.03;;;;;;;22.96;70.70;95667.66;1701246;84;21087;-70
2022/08/31 08:55:04;;;;;;;6.95;6.28;;;;;;;22.96;70.27;95670.84;1701257;84;21028;-68
2022/08/31 08:57:35;;;;;;;10.32;5.62;;;;;;;22.90;70.07;95668.05;1701199;84;21023;-70
2022/08/31 09:00:09;;;;;;;;;;;;;;;22.85;69.49;95675.56;1703596;84;20992;-68
2022/08/31 09:02:41;;;;;;;15.63;7.58;;;;;;;22.80;69.00;95672.31;1701401;83;20129;-72
2022/08/31 09:05:45;;;;;;;9.45;5.97;;;;;;;22.68;69.33;95670.83;1701466;84;21099;-71
2022/08/31 09:08:27;;;;;;;17.05;6.28;;;;;;;22.56;69.14;95662.20;1699473;84;21103;-69
2022/08/31 09:11:16;;;;;;;7.60;6.10;;;;;;;22.46;69.53;95670.00;1701392;84;21079;-69
2022/08/31 09:14:04;;;;;;;9.00;7.00;;;;;;;22.47;69.99;95664.13;1700713;84;21027;-68
2022/08/31 09:16:46;;;;;;;9.05;6.00;;;;;;;22.56;70.50;95662.70;1700845;84;21568;-69
2022/08/31 09:19:17;;;;;;;9.38;5.87;;;;;;;22.59;70.35;95660.66;1701291;84;21011;-68
2022/08/31 09:21:57;;;;;;;7.58;6.12;;;;;;;22.67;70.76;95664.19;1701141;84;21545;-73
2022/08/31 09:24:28;;;;;;;9.63;5.78;;;;;;;22.75;70.47;95667.23;1701588;84;20991;-71
2022/08/31 09:27:18;;;;;;;9.85;6.25;;;;;;;22.89;70.83;95663.16;1698134;84;21043;-70
2022/08/31 09:29:59;;;;;;;11.55;5.78;;;;;;;23.00;70.44;95659.78;1701167;84;21039;-69
2022/08/31 09:32:34;;;;;;;7.50;5.60;;;;;;;23.03;69.92;95660.05;1701235;84;21063;-69
2022/08/31 09:35:09;;;;;;;7.10;5.83;;;;;;;23.13;69.88;95660.30;1701191;84;21003;-69
2022/08/31 09:37:47;;;;;;;6.03;4.97;;;;;;;23.13;68.24;95656.27;1699203;84;21079;-69
2022/08/31 09:40:19;;;;;;;6.10;5.17;;;;;;;23.23;68.77;95655.53;1701297;84;20991;-69
2022/08/31 09:43:00;;;;;;;9.30;5.73;;;;;;;23.47;68.41;95658.39;1714696;83;21070;-71
2022/08/31 09:45:34;;;;;;;9.73;6.47;;;;;;;23.69;67.09;95647.01;1732144;83;21035;-67
2022/08/31 09:48:00;;;;;;;6.62;5.20;;;;;;;23.87;62.20;95652.11;1731506;83;21055;-68
2022/08/31 09:50:43;;;;;;;10.70;5.70;;;;;;;24.12;63.69;95655.28;1732273;83;21074;-65
2022/08/31 09:56:15;;;;;;;7.22;5.20;;;;;;;24.70;63.63;95642.98;1689241;83;21490;-70
2022/08/31 09:58:49;;;;;;;8.30;5.30;;;;;;;24.92;62.13;95632.81;1732010;83;21028;-69
2022/08/31 10:01:42;;;;;;;7.47;5.17;;;;;;;25.05;62.32;95637.64;1732005;83;21026;-68
2022/08/31 10:04:35;;;;;;;16.73;7.85;;;;;;;25.13;61.95;95640.27;1732318;83;21481;-69
2022/08/31 10:07:20;;;;;;;20.23;8.23;;;;;;;25.25;61.40;95631.27;1731707;83;21003;-70
2022/08/31 10:09:53;;;;;;;16.48;9.03;;;;;;;25.33;59.54;95625.27;1731299;83;21058;-70
2022/08/31 10:12:27;;;;;;;11.45;5.87;;;;;;;25.45;58.90;95625.66;1732062;83;21006;-69
2022/08/31 10:15:02;;;;;;;10.70;5.50;;;;;;;25.65;60.51;95619.59;1687445;84;21074;-69
2022/08/31 10:17:44;;;;;;;20.30;8.73;;;;;;;25.77;59.65;95610.98;1716204;84;21014;-68
2022/08/31 10:20:19;;;;;;;18.12;8.85;;;;;;;25.76;57.99;95614.69;1700281;84;21022;-69
2022/08/31 10:22:51;;;;;;;12.68;8.05;;;;;;;25.66;58.36;95610.98;1716256;84;21070;-67
2022/08/31 10:25:37;;;;;;;9.15;5.65;;;;;;;25.52;58.34;95615.24;1732225;82;21528;-70
2022/08/31 10:28:15;;;;;;;7.03;4.97;;;;;;;25.55;59.37;95616.34;1732232;83;21014;-71
2022/08/31 10:30:53;;;;;;;6.50;5.00;;;;;;;25.36;59.29;95611.03;1730816;83;21099;-71
2022/08/31 10:35:01;;;;;;;7.00;5.42;;;;;;;25.15;59.73;95604.53;1732208;83;21011;-71
2022/08/31 10:35:59;;;;;;;5.87;5.30;;;;;;;24.93;60.36;95600.78;1728206;83;21537;-70
2022/08/31 10:38:39;;;;;;;10.25;6.35;;;;;;;24.79;61.13;95598.25;1731679;83;21047;-70
2022/08/31 10:41:26;;;;;;;11.38;5.30;;;;;;;24.84;60.90;95592.88;1732068;83;21091;-72
2022/08/31 10:44:16;;;;;;;9.70;5.37;;;;;;;25.03;60.50;95590.15;1731917;83;21059;-70
2022/08/31 10:46:38;;;;;;;7.62;5.58;;;;;;;24.90;60.01;95596.11;1731123;83;21506;-71
2022/08/31 10:49:06;;;;;;;7.12;4.92;;;;;;;24.97;60.66;95584.73;1732040;83;21023;-71
2022/08/31 10:52:00;;;;;;;6.50;5.30;;;;;;;25.01;58.95;95585.34;1731819;83;21030;-71
2022/08/31 10:54:39;;;;;;;5.50;4.90;;;;;;;25.09;59.50;95584.27;1731890;83;21489;-71
2022/08/31 10:57:18;;;;;;;5.22;4.72;;;;;;;25.13;59.81;95576.81;1696423;83;21066;-70
2022/08/31 11:00:00;;;;;;;9.20;5.40;;;;;;;25.07;59.89;95579.47;1731256;83;21027;-71
2022/08/31 11:03:00;;;;;;;6.22;4.83;;;;;;;25.01;61.12;95578.60;1723878;83;21094;-70
2022/08/31 11:05:36;;;;;;;8.20;5.35;;;;;;;24.93;61.00;95584.59;1697438;83;21504;-71
2022/08/31 11:08:14;;;;;;;7.03;5.20;;;;;;;24.88;60.73;95589.97;1732308;82;21019;-71
2022/08/31 11:10:51;;;;;;;7.42;4.50;;;;;;;24.83;61.21;95590.30;1730356;83;21063;-71
2022/08/31 11:13:55;;;;;;;7.12;4.75;;;;;;;24.69;61.19;95598.06;1732052;83;20995;-71
2022/08/31 11:17:21;;;;;;;5.67;4.97;;;;;;;24.53;62.20;95590.27;1667995;85;21094;-72
2022/08/31 11:19:53;;;;;;;6.78;4.55;;;;;;;24.25;62.02;95595.45;1668680;86;21093;-75
2022/08/31 11:23:05;;;;;;;5.50;4.65;;;;;;;23.91;63.41;95587.12;1719571;83;21071;-74
2022/08/31 11:25:58;;;;;;;5.78;4.95;;;;;;;23.74;64.21;95586.97;1732154;83;21509;-73
2022/08/31 11:28:44;;;;;;;10.32;4.85;;;;;;;23.57;65.18;95591.78;1731813;83;21134;-81
2022/08/31 11:31:24;;;;;;;5.53;5.00;;;;;;;23.46;65.25;95588.02;1732022;83;21051;-80
2022/08/31 11:34:01;;;;;;;5.40;4.83;;;;;;;23.40;65.59;95582.19;1731962;82;21517;-78
2022/08/31 11:36:50;;;;;;;5.00;4.50;;;;;;;23.37;65.07;95582.41;1728355;83;21079;-78
2022/08/31 11:39:37;;;;;;;6.05;5.22;;;;;;;23.32;65.09;95575.50;1730796;83;21058;-78
2022/08/31 11:42:30;;;;;;;5.67;4.45;;;;;;;23.34;65.93;95572.71;1732192;83;21015;-78
2022/08/31 11:45:05;;;;;;;5.90;4.70;;;;;;;23.39;64.15;95575.94;1731531;83;21039;-78
2022/08/31 11:47:36;;;;;;;5.42;4.47;;;;;;;24.19;63.92;95567.56;1731780;83;21087;-78
2022/08/31 11:50:23;;;;;;;5.92;3.67;;;;;;;25.11;60.07;95559.86;1732018;82;21011;-78
2022/08/31 11:52:52;;;;;;;4.58;4.12;;;;;;;25.98;57.89;95558.47;1731872;83;21081;-78
2022/08/31 11:55:29;;;;;;;4.28;3.62;;;;;;;26.85;55.32;95556.34;1731893;83;21058;-78
2022/08/31 11:58:08;;;;;;;4.05;3.50;;;;;;;27.60;55.16;95558.08;1732126;83;21034;-77
2022/08/31 12:01:13;;;;;;;4.72;4.12;;;;;;;27.62;50.18;95564.23;1732043;83;21003;-77
2022/08/31 12:03:51;;;;;;;5.95;4.00;;;;;;;27.52;51.42;95568.73;1732348;83;21481;-77
2022/08/31 12:06:35;;;;;;;5.35;3.40;;;;;;;28.13;50.95;95559.30;1732128;83;21545;-78
2022/08/31 12:09:41;;;;;;;9.23;3.62;;;;;;;28.80;47.51;95550.97;1731841;83;21007;-77